• Join FlightAware (Why Join?)
  • Login
  • US Flag 
07:06PM EDT


 

Airport Tracker/Info


-or-


 

Live Flight TrackerFlight Track Log ✈ EGF3681 ✈ 14-Oct-2013 ✈ KORD - KDAY

Flight Track Log - Related Links

Times and Time Zones

All times are in EDT time to prevent confusion due to time zone crossing. See the EGF3681 flight status page for this flight to view local times or setup timezone preferences in your user account.

Time Position Orientation Groundspeed Altitude Reporting Facility
EDT Latitude Longitude Course Direction KTS MPH feet Rate Location/Type
11:16PM 41.8719 -87.7005 90° East  Level Estimated
11:16PM 42.0270 -87.7970 98° East 100 115 4,700  Level FlightAware
11:17PM 41.8168 -87.5977 98° East  Level Estimated
11:17PM 42.0240 -87.7630 97° East 256 295 5,400  Level FlightAware
11:17PM 42.0210 -87.7370 99° East 264 304 6,100 2,520 Climbing FlightAware
11:17PM 42.0170 -87.7060 100° East 271 312 6,900 2,700 Climbing FlightAware
11:18PM 42.0120 -87.6630 99° East 280 322 7,900 2,400 Climbing FlightAware
11:18PM 42.0100 -87.6460 99° East 281 323 8,300 2,700 Climbing FlightAware
11:18PM 42.0080 -87.6290 99° East 281 323 8,800 1,020 Climbing FlightAware
11:19PM 42.0020 -87.5750 98° East 281 323 9,100 300 Climbing FlightAware
11:19PM 41.9980 -87.5400 99° East 281 323 9,100  Level FlightAware
11:19PM 41.9950 -87.5050 97° East 281 323 9,100  Level FlightAware
11:20PM 41.9930 -87.4870 98° East 281 323 9,100  Level FlightAware
11:20PM 41.9890 -87.4520 99° East 281 323 9,100 3,180 Level FlightAware
11:21PM 41.9700 -87.2910 99° East 281 323 13,600 3,480 Climbing FlightAware
11:22PM 41.9610 -87.2110 99° East 354 407 14,700 1,620 Climbing FlightAware
11:22PM 41.9510 -87.1330 100° East 363 418 15,500 1,200 Climbing FlightAware
11:23PM 41.9420 -87.0550 99° East 366 421 16,100 1,200 Climbing FlightAware
11:23PM 41.9320 -86.9750 100° East 385 443 16,900 1,260 Climbing FlightAware
11:24PM 41.9220 -86.8890 99° East 380 437 17,600 1,200 Climbing FlightAware
11:24PM 41.9130 -86.8070 98° East 395 455 18,300 1,200 Climbing FlightAware
11:25PM 41.9060 -86.7590 101° East 378 435 18,700 1,260 Climbing FlightAware
11:25PM 41.8960 -86.6740 99° East 387 445 19,500 1,260 Climbing FlightAware
11:26PM 41.8850 -86.5860 100° East 369 425 20,200 1,200 Climbing FlightAware
11:26PM 41.8780 -86.5230 98° East 382 440 20,700 840 Climbing FlightAware
11:27PM 41.8660 -86.4620 105° East 460 529 20,900 1,200 Climbing FlightAware
11:27PM 41.8500 -86.4350 128° Southeast 460 529 21,500  Climbing FlightAware
11:27PM 41.8420 -86.4270 143° Southeast 460 529 20,900 1,200 Descending FlightAware
11:27PM 41.8230 -86.3980 131° Southeast 413 475 21,900 3,000 Climbing FlightAware
11:27PM 41.8140 -86.3860 135° Southeast 434 499 21,900 1,200 Level FlightAware
11:28PM 41.7680 -86.3350 140° Southeast 440 506 22,700 1,320 Climbing FlightAware
11:28PM 41.7520 -86.3140 136° Southeast 407 468 22,900 -600 Climbing FlightAware
11:29PM 41.7240 -86.2830 140° Southeast 407 468 22,400 120 Descending FlightAware
11:29PM 41.6940 -86.2500 141° Southeast 402 463 23,000 1,200 Climbing FlightAware
11:29PM 41.6780 -86.2300 137° Southeast 402 463 23,000  Level FlightAware
11:29PM 41.6630 -86.2130 140° Southeast 402 463 23,000  Level FlightAware
11:29PM 41.6480 -86.1920 134° Southeast 422 486 23,000  Level FlightAware
11:30PM 41.6350 -86.1810 148° Southeast 422 486 23,000  Level FlightAware
11:30PM 41.5930 -86.1310 138° Southeast 407 468 23,000  Level FlightAware
11:30PM 41.5850 -86.1190 132° Southeast 407 468 23,000  Level FlightAware
11:30PM 41.5780 -86.1150 157° South 407 468 23,000  Level FlightAware
11:31PM 41.5060 -86.0300 139° Southeast 268 308 23,000  Level FlightAware
11:31PM 41.4820 -86.0020 139° Southeast 268 308 23,000  Level FlightAware
11:31PM 41.4520 -85.9670 139° Southeast 268 308 23,000  Level FlightAware
11:32PM 41.4410 -85.9510 133° Southeast 268 308 23,000  Level FlightAware
11:32PM 41.4170 -85.9250 141° Southeast 509 586 23,000  Level FlightAware
11:32PM 41.4020 -85.9080 140° Southeast 455 524 23,000  Level FlightAware
11:32PM 41.3940 -85.8990 140° Southeast 455 524 23,000  Level FlightAware
11:32PM 41.3600 -85.8580 138° Southeast 443 510 23,000  Level FlightAware
11:32PM 41.3500 -85.8450 136° Southeast 458 527 23,000  Level FlightAware
11:33PM 41.3350 -85.8280 140° Southeast 458 527 23,000  Level FlightAware
11:33PM 41.3270 -85.8200 143° Southeast 438 504 23,000  Level FlightAware
11:33PM 41.3100 -85.7990 137° Southeast 509 586 23,000  Level FlightAware
11:33PM 41.2880 -85.7640 130° Southeast 509 586 23,000  Level FlightAware
11:33PM 41.2750 -85.7600 167° South 509 586 23,000  Level FlightAware
11:34PM 41.2430 -85.7160 134° Southeast 509 586 23,000  Level FlightAware
11:34PM 41.2320 -85.7110 161° South 509 586 23,000  Level FlightAware
11:34PM 41.2160 -85.6880 133° Southeast 509 586 23,000  Level FlightAware
11:34PM 41.2030 -85.6770 148° Southeast 457 526 23,000  Level FlightAware
11:34PM 41.1950 -85.6730 159° South 457 526 23,000  Level FlightAware
11:34PM 41.1860 -85.6540 122° Southeast 457 526 23,000  Level FlightAware
11:35PM 41.1900 -85.7490 273° West 457 526 23,000  Level FlightAware
11:36PM 41.1930 -85.8350 273° West 457 526 23,000  Level FlightAware
11:36PM 41.0620 -85.5190 119° Southeast 457 526 23,000  Level FlightAware
11:36PM 41.0110 -85.4590 138° Southeast 457 526 23,000  Level FlightAware
11:36PM 41.0020 -85.4510 146° Southeast 457 526 23,000  Level FlightAware
11:36PM 40.9920 -85.4340 128° Southeast 457 526 23,000  Level FlightAware
11:37PM 40.9390 -85.3740 139° Southeast 426 490 23,000  Level FlightAware
11:38PM 40.8910 -85.3170 138° Southeast 426 490 23,000  Level FlightAware
11:38PM 40.8460 -85.2640 138° Southeast 426 490 23,000  Level FlightAware
11:39PM 40.8020 -85.2110 138° Southeast 426 490 23,000  Level FlightAware
11:39PM 40.7570 -85.1570 138° Southeast 426 490 23,000  Level FlightAware
11:40PM 40.7120 -85.1040 138° Southeast 426 490 23,000 -3,360 Level FlightAware
11:41PM 40.5389 -84.9244 138° Southeast 421 484 17,800 -3,900 Descending Indianapolis Center
11:42PM 40.4700 -84.8469 139° Southeast 407 468 16,200 -2,100 Descending Indianapolis Center
11:42PM 40.4564 -84.8319 140° Southeast 408 470 15,700 -2,520 Descending Indianapolis Center
11:42PM 40.4400 -84.8139 140° Southeast 395 455 15,200 -2,400 Descending Indianapolis Center
11:43PM 40.3756 -84.7447 141° Southeast 385 443 13,300 -2,400 Descending Indianapolis Center
11:43PM 40.3622 -84.7358 153° Southeast 374 430 13,000 -2,280 Descending Indianapolis Center
11:44PM 40.2881 -84.6767 149° Southeast 367 422 11,000 -2,220 Descending Indianapolis Center
11:44PM 40.2747 -84.6697 158° South 361 415 10,800 -900 Descending Indianapolis Center
11:45PM 40.1992 -84.6117 150° Southeast 367 422 10,100 -840 Descending Indianapolis Center
11:45PM 40.1875 -84.6014 146° Southeast 363 418 10,000 -300 Descending Indianapolis Center
11:46PM 40.1244 -84.5500 148° Southeast 327 376 9,800 -660 Descending Indianapolis Center
11:46PM 40.1039 -84.5367 154° Southeast 281 323 9,300 -1,800 Descending Indianapolis Center
11:47PM 40.0572 -84.4989 148° Southeast 280 322 8,000 -1,920 Descending Indianapolis Center
11:47PM 40.0419 -84.4869 149° Southeast 268 308 7,600 -1,860 Descending Indianapolis Center
11:48PM 39.9761 -84.4336 148° Southeast 261 300 5,800 -1,500 Descending Indianapolis Center
11:49PM 39.9336 -84.3994 148° Southeast 263 303 4,700 -1,500 Descending Indianapolis Center
11:49PM 39.9183 -84.3850 144° Southeast 244 281 4,300 -1,680 Descending Indianapolis Center
11:50PM 39.8836 -84.3531 145° Southeast 244 281 3,000 -1,680 Descending Indianapolis Center
11:50PM 39.8781 -84.3475 142° Southeast 176 203 2,800 -1,020 Descending Indianapolis Center
11:51PM 39.8711 -84.3000 101° East 187 215 2,000 -840 Descending Indianapolis Center
11:51PM 39.8706 -84.2997 159° South 129 148 2,000 -120 Level Indianapolis Center
11:52PM 39.8836 -84.2467 72° East 181 208 1,900 -720 Descending Indianapolis Center
11:52PM 39.8897 -84.2567 309° West 125 144 1,300 -12,000 Descending Indianapolis Center